createdAt,value
2023-02-14T00:01:32.426Z,3.63
2023-02-14T00:04:00.978Z,3.17
2023-02-14T00:06:31.927Z,3.03
2023-02-14T00:09:00.246Z,3.17
2023-02-14T00:11:28.593Z,2.90
2023-02-14T00:14:14.677Z,3.20
2023-02-14T00:16:42.908Z,3.07
2023-02-14T00:19:11.307Z,3.07
2023-02-14T00:21:41.005Z,2.77
2023-02-14T00:24:10.205Z,2.83
2023-02-14T00:26:38.954Z,2.53
2023-02-14T00:29:07.330Z,2.60
2023-02-14T00:31:35.742Z,3.00
2023-02-14T00:34:04.199Z,2.67
2023-02-14T00:36:32.488Z,2.30
2023-02-14T00:39:03.529Z,2.20
2023-02-14T00:41:31.803Z,3.60
2023-02-14T00:44:00.101Z,2.63
2023-02-14T00:46:28.372Z,2.40
2023-02-14T00:48:56.745Z,2.33
2023-02-14T00:51:25.206Z,1.83
2023-02-14T00:53:53.550Z,1.60
2023-02-14T00:56:23.316Z,2.80
2023-02-14T00:58:51.662Z,2.53
2023-02-14T01:01:20.170Z,2.30
2023-02-14T01:03:48.520Z,2.50
2023-02-14T01:06:16.866Z,2.60
2023-02-14T01:08:45.147Z,2.57
2023-02-14T01:11:13.818Z,2.60
2023-02-14T01:13:43.494Z,2.60
2023-02-14T01:16:12.208Z,2.10
2023-02-14T01:18:40.560Z,1.70
2023-02-14T01:21:12.988Z,1.80
2023-02-14T01:23:41.306Z,2.40
2023-02-14T01:26:09.685Z,2.60
2023-02-14T01:28:37.982Z,2.03
2023-02-14T01:31:14.206Z,2.40
2023-02-14T01:33:42.931Z,2.07
2023-02-14T01:36:17.554Z,2.13
2023-02-14T01:38:45.855Z,2.03
2023-02-14T01:41:14.206Z,2.07
2023-02-14T01:43:52.534Z,2.40
2023-02-14T01:46:22.143Z,2.33
2023-02-14T01:48:50.408Z,1.50
2023-02-14T01:51:18.787Z,1.97
2023-02-14T01:53:47.100Z,3.27
2023-02-14T01:56:16.384Z,1.77
2023-02-14T01:58:45.409Z,2.33
2023-02-14T02:01:13.797Z,2.33
2023-02-14T02:03:43.705Z,2.10
2023-02-14T02:06:12.705Z,1.87
2023-02-14T02:08:42.130Z,2.60
2023-02-14T02:11:10.396Z,2.10
2023-02-14T02:13:38.713Z,2.40
2023-02-14T02:16:14.129Z,2.30
2023-02-14T02:18:46.186Z,1.80
2023-02-14T02:21:47.401Z,1.90
2023-02-14T02:24:27.255Z,2.10
2023-02-14T02:27:13.254Z,1.97
2023-02-14T02:29:59.497Z,2.30
2023-02-14T02:32:54.538Z,2.13
2023-02-14T02:35:26.315Z,1.90
2023-02-14T02:38:04.245Z,1.67
2023-02-14T02:40:35.265Z,1.83
2023-02-14T02:43:05.963Z,1.83
2023-02-14T02:45:36.196Z,1.80
2023-02-14T02:48:06.508Z,1.50
2023-02-14T02:50:56.183Z,2.27
2023-02-14T02:53:25.303Z,1.77
2023-02-14T02:56:11.969Z,1.83
2023-02-14T02:58:41.124Z,2.17
2023-02-14T03:01:10.403Z,1.80
2023-02-14T03:03:56.702Z,2.30
2023-02-14T03:06:26.409Z,1.50
2023-02-14T03:08:54.673Z,1.53
2023-02-14T03:11:22.957Z,2.30
2023-02-14T03:13:55.542Z,2.40
2023-02-14T03:16:29.041Z,1.10
2023-02-14T03:19:22.987Z,1.73
2023-02-14T03:21:54.524Z,1.50
2023-02-14T03:24:26.238Z,2.33
2023-02-14T03:26:57.194Z,1.80
2023-02-14T03:29:27.577Z,2.03
2023-02-14T03:31:57.874Z,1.87
2023-02-14T03:34:27.797Z,2.10
2023-02-14T03:36:58.660Z,1.97
2023-02-14T03:39:27.690Z,2.03
2023-02-14T03:41:56.768Z,1.90
2023-02-14T03:44:28.431Z,1.70
2023-02-14T03:46:57.958Z,1.53
2023-02-14T03:49:28.168Z,2.17
2023-02-14T03:51:58.357Z,2.20
2023-02-14T03:54:26.813Z,2.20
2023-02-14T03:56:56.208Z,1.40
2023-02-14T03:59:25.150Z,1.83
2023-02-14T04:01:55.064Z,1.90
2023-02-14T04:04:24.519Z,1.97
2023-02-14T04:06:52.790Z,1.43
2023-02-14T04:09:22.508Z,1.50
2023-02-14T04:11:51.366Z,1.73
2023-02-14T04:14:19.695Z,1.83
2023-02-14T04:17:05.465Z,1.33
2023-02-14T04:19:33.751Z,1.53
2023-02-14T04:22:02.047Z,1.60
2023-02-14T04:24:31.757Z,1.77
2023-02-14T04:27:12.250Z,1.77
2023-02-14T04:29:41.049Z,2.00
2023-02-14T04:32:09.635Z,2.13
2023-02-14T04:34:38.074Z,1.53
2023-02-14T04:37:06.438Z,1.73
2023-02-14T04:39:36.110Z,1.90
2023-02-14T04:42:04.382Z,1.90
2023-02-14T04:44:34.007Z,1.37
2023-02-14T04:47:02.348Z,1.33
2023-02-14T04:49:30.695Z,1.40
2023-02-14T04:51:59.009Z,2.57
2023-02-14T04:54:27.288Z,1.90
2023-02-14T04:56:56.972Z,2.00
2023-02-14T04:59:25.287Z,2.07
2023-02-14T05:01:53.628Z,1.27
2023-02-14T05:04:21.952Z,1.50
2023-02-14T05:06:50.226Z,1.90
2023-02-14T05:09:18.523Z,1.77
2023-02-14T05:11:46.803Z,1.43
2023-02-14T05:14:16.537Z,1.83
2023-02-14T05:16:44.932Z,1.83
2023-02-14T05:19:13.418Z,1.83
2023-02-14T05:21:41.697Z,2.07
2023-02-14T05:24:09.960Z,2.07
2023-02-14T05:26:38.229Z,2.00
2023-02-14T05:29:06.528Z,2.00
2023-02-14T05:31:36.231Z,2.47
2023-02-14T05:34:04.659Z,2.37
2023-02-14T05:36:32.955Z,1.87
2023-02-14T05:39:01.230Z,1.97
2023-02-14T05:41:29.535Z,2.20
2023-02-14T05:43:57.794Z,2.60
2023-02-14T05:46:26.144Z,2.47
2023-02-14T05:48:55.780Z,2.33
2023-02-14T05:51:24.093Z,2.63
2023-02-14T05:53:52.369Z,2.47
2023-02-14T05:56:20.645Z,2.50
2023-02-14T05:58:48.895Z,2.50
2023-02-14T06:01:17.179Z,2.30
2023-02-14T06:03:45.511Z,1.83
2023-02-14T06:06:15.134Z,2.50
2023-02-14T06:08:43.438Z,1.87
2023-02-14T06:11:11.719Z,2.17
2023-02-14T06:13:41.527Z,2.40
2023-02-14T06:16:09.988Z,1.90
2023-02-14T06:18:38.324Z,1.70
2023-02-14T06:21:06.816Z,1.90
2023-02-14T06:23:36.468Z,1.77
2023-02-14T06:26:04.822Z,2.13
2023-02-14T06:28:33.169Z,2.30
2023-02-14T06:31:02.019Z,2.30
2023-02-14T06:33:30.625Z,2.20
2023-02-14T06:35:59.069Z,2.23
2023-02-14T06:38:27.502Z,2.43
2023-02-14T06:40:59.138Z,2.10
2023-02-14T06:43:28.681Z,2.30
2023-02-14T06:45:57.004Z,2.07
2023-02-14T06:48:25.366Z,2.27
2023-02-14T06:50:53.711Z,2.27
2023-02-14T06:53:21.983Z,2.13
2023-02-14T06:55:50.354Z,1.83
2023-02-14T06:58:20.041Z,1.97
2023-02-14T07:00:48.377Z,2.07
2023-02-14T07:03:16.882Z,2.90
2023-02-14T07:05:45.636Z,1.87
2023-02-14T07:08:13.902Z,1.70
2023-02-14T07:10:42.348Z,1.70
2023-02-14T07:13:10.742Z,1.90
2023-02-14T07:15:40.498Z,1.50
2023-02-14T07:18:10.624Z,1.70
2023-02-14T07:20:38.939Z,2.03
2023-02-14T07:23:07.579Z,1.63
2023-02-14T07:25:35.908Z,1.77
2023-02-14T07:28:04.805Z,2.07
2023-02-14T07:30:33.563Z,1.70
2023-02-14T07:33:03.220Z,2.10
2023-02-14T07:35:31.560Z,1.70
2023-02-14T07:38:00.262Z,2.10
2023-02-14T07:40:29.936Z,1.60
2023-02-14T07:42:58.555Z,1.93
2023-02-14T07:45:27.005Z,1.37
2023-02-14T07:47:55.704Z,1.60
2023-02-14T07:50:25.356Z,1.67
2023-02-14T07:52:53.752Z,1.80
2023-02-14T07:55:22.891Z,1.57
2023-02-14T07:57:51.246Z,2.17
2023-02-14T08:00:19.802Z,1.73
2023-02-14T08:02:49.463Z,1.60
2023-02-14T08:05:18.213Z,1.50
2023-02-14T08:07:47.882Z,1.40
2023-02-14T08:10:16.288Z,1.77
2023-02-14T08:13:03.798Z,1.13
2023-02-14T08:15:50.319Z,1.30
2023-02-14T08:18:18.826Z,1.57
2023-02-14T08:20:48.655Z,2.03
2023-02-14T08:23:18.318Z,1.50
2023-02-14T08:25:46.905Z,1.50
2023-02-14T08:28:15.183Z,1.30
2023-02-14T08:30:43.561Z,1.33
2023-02-14T08:33:11.915Z,1.57
2023-02-14T08:35:40.188Z,1.53
2023-02-14T08:38:08.749Z,1.90
2023-02-14T08:40:38.761Z,1.33
2023-02-14T08:43:07.067Z,1.53
2023-02-14T08:45:35.362Z,1.70
2023-02-14T08:48:04.405Z,1.37
2023-02-14T08:50:32.738Z,1.40
2023-02-14T08:53:01.052Z,1.63
2023-02-14T08:55:29.731Z,1.73
2023-02-14T08:58:00.553Z,1.37
2023-02-14T09:00:29.026Z,1.30
2023-02-14T09:02:57.634Z,1.50
2023-02-14T09:05:26.458Z,1.77
2023-02-14T09:07:56.007Z,1.40
2023-02-14T09:10:24.522Z,1.87
2023-02-14T09:12:52.864Z,1.70
2023-02-14T09:15:22.675Z,1.90
2023-02-14T09:17:51.245Z,2.93
2023-02-14T09:20:19.603Z,2.93
2023-02-14T09:22:48.917Z,2.43
2023-02-14T09:25:17.398Z,2.73
2023-02-14T09:27:45.719Z,2.40
2023-02-14T09:30:14.565Z,2.73
2023-02-14T09:32:44.445Z,2.27
2023-02-14T09:35:30.580Z,2.90
2023-02-14T09:37:59.054Z,3.03
2023-02-14T09:40:27.349Z,4.00
2023-02-14T09:42:59.556Z,3.67
2023-02-14T09:45:30.560Z,2.70
2023-02-14T09:48:00.976Z,3.77
2023-02-14T09:50:29.924Z,3.40
2023-02-14T09:52:58.706Z,3.10
2023-02-14T09:55:28.125Z,3.07
2023-02-14T09:58:03.525Z,3.10
2023-02-14T10:00:34.068Z,3.40
2023-02-14T10:03:05.249Z,3.70
2023-02-14T10:05:34.432Z,3.10
2023-02-14T10:08:04.198Z,4.03
2023-02-14T10:10:33.528Z,3.03
2023-02-14T10:13:03.629Z,3.87
2023-02-14T10:15:33.073Z,3.07
2023-02-14T10:18:03.002Z,3.47
2023-02-14T10:20:33.376Z,3.03
2023-02-14T10:23:04.741Z,2.77
2023-02-14T10:25:35.619Z,2.83
2023-02-14T10:28:03.940Z,3.73
2023-02-14T10:30:36.818Z,3.83
2023-02-14T10:33:05.528Z,3.10
2023-02-14T10:35:36.917Z,3.40
2023-02-14T10:38:08.246Z,3.77
2023-02-14T10:40:43.807Z,3.40
2023-02-14T10:43:15.503Z,3.13
2023-02-14T10:45:44.956Z,3.90
2023-02-14T10:48:16.654Z,3.13
2023-02-14T10:50:48.531Z,3.60
2023-02-14T10:53:17.507Z,3.07
2023-02-14T10:55:46.200Z,3.90
2023-02-14T10:58:15.499Z,3.17
2023-02-14T11:00:45.897Z,4.03
2023-02-14T11:03:14.227Z,4.33
2023-02-14T11:05:46.525Z,3.50
2023-02-14T11:08:21.263Z,3.60
2023-02-14T11:10:49.949Z,3.67
2023-02-14T11:13:28.621Z,3.10
2023-02-14T11:15:58.691Z,5.23
2023-02-14T11:18:31.818Z,3.13
2023-02-14T11:21:10.421Z,4.13
2023-02-14T11:23:41.186Z,4.00
2023-02-14T11:26:11.589Z,4.10
2023-02-14T11:28:42.074Z,4.37
2023-02-14T11:31:10.532Z,3.70
2023-02-14T11:33:39.929Z,3.77
2023-02-14T11:36:16.756Z,3.97
2023-02-14T11:38:47.102Z,3.87
2023-02-14T11:41:15.950Z,3.60
2023-02-14T11:43:44.495Z,4.67
2023-02-14T11:46:17.340Z,3.47
2023-02-14T11:48:56.161Z,3.37
2023-02-14T11:51:27.809Z,3.37
2023-02-14T11:54:00.647Z,4.27
2023-02-14T11:56:43.592Z,3.90
2023-02-14T11:59:12.727Z,4.07
2023-02-14T12:01:41.360Z,3.90
2023-02-14T12:04:16.108Z,3.33
2023-02-14T12:06:45.729Z,3.93
2023-02-14T12:09:19.031Z,4.77
2023-02-14T12:11:50.762Z,3.77
2023-02-14T12:14:22.269Z,3.37
2023-02-14T12:16:52.307Z,4.60
2023-02-14T12:19:21.923Z,4.23
2023-02-14T12:21:50.592Z,3.90
2023-02-14T12:24:25.497Z,3.60
2023-02-14T12:26:55.669Z,4.87
2023-02-14T12:29:26.239Z,4.53
2023-02-14T12:31:54.738Z,3.67
2023-02-14T12:34:23.446Z,5.03
2023-02-14T12:37:03.868Z,4.47
2023-02-14T12:39:35.162Z,5.03
2023-02-14T12:42:05.186Z,4.47
2023-02-14T12:44:35.507Z,4.20
2023-02-14T12:47:06.063Z,4.37
2023-02-14T12:49:41.906Z,4.07
2023-02-14T12:52:13.815Z,4.73
2023-02-14T12:54:47.037Z,4.50
2023-02-14T12:57:17.665Z,4.13
2023-02-14T12:59:48.398Z,5.53
2023-02-14T13:02:25.623Z,4.00
2023-02-14T13:04:58.207Z,4.90
2023-02-14T13:07:28.971Z,4.70
2023-02-14T13:09:59.861Z,4.23
2023-02-14T13:12:31.726Z,3.67
2023-02-14T13:15:03.867Z,4.23
2023-02-14T13:17:34.880Z,4.90
2023-02-14T13:20:05.958Z,4.60
2023-02-14T13:22:34.395Z,4.20
2023-02-14T13:25:05.493Z,4.13
2023-02-14T13:27:34.345Z,4.27
2023-02-14T13:30:02.881Z,4.27
2023-02-14T13:32:32.571Z,5.80
2023-02-14T13:35:00.870Z,4.27
2023-02-14T13:37:29.522Z,4.77
2023-02-14T13:39:58.297Z,5.27
2023-02-14T13:42:45.340Z,5.13
2023-02-14T13:45:18.512Z,4.17
2023-02-14T13:47:46.772Z,4.80
2023-02-14T13:50:19.735Z,4.00
2023-02-14T13:52:48.637Z,4.53
2023-02-14T13:55:18.224Z,4.07
2023-02-14T13:57:47.723Z,4.83
2023-02-14T14:00:40.227Z,4.87
2023-02-14T14:03:11.558Z,4.60
2023-02-14T14:06:09.804Z,4.60
2023-02-14T14:08:38.897Z,3.93
2023-02-14T14:11:08.209Z,4.63
2023-02-14T14:13:55.188Z,4.40
2023-02-14T14:16:28.008Z,5.10
2023-02-14T14:18:58.205Z,4.73
2023-02-14T14:21:26.618Z,4.33
2023-02-14T14:24:05.309Z,4.67
2023-02-14T14:26:36.569Z,4.93
2023-02-14T14:29:05.736Z,4.17
2023-02-14T14:31:34.103Z,4.67
2023-02-14T14:34:03.817Z,3.93
2023-02-14T14:36:32.085Z,4.80
2023-02-14T14:39:00.407Z,4.00
2023-02-14T14:41:29.263Z,3.73
2023-02-14T14:43:57.826Z,4.30
2023-02-14T14:46:26.106Z,3.97
2023-02-14T14:48:55.439Z,3.63
2023-02-14T14:51:29.000Z,4.07
2023-02-14T14:53:57.784Z,4.27
2023-02-14T14:56:26.492Z,4.70
2023-02-14T14:58:54.946Z,3.80
2023-02-14T15:01:33.260Z,4.90
2023-02-14T15:04:14.336Z,4.20
2023-02-14T15:06:43.997Z,3.70
2023-02-14T15:09:16.035Z,3.40
2023-02-14T15:12:02.286Z,4.27
2023-02-14T15:14:31.102Z,3.63
2023-02-14T15:16:59.801Z,4.60
2023-02-14T15:19:34.308Z,3.93
2023-02-14T15:22:04.703Z,4.10
2023-02-14T15:24:35.296Z,3.77
2023-02-14T15:27:03.747Z,4.63
2023-02-14T15:29:32.509Z,4.30
2023-02-14T15:32:03.112Z,3.77
2023-02-14T15:34:32.095Z,3.90
2023-02-14T15:37:04.076Z,3.73
2023-02-14T15:39:35.905Z,3.60
2023-02-14T15:42:05.071Z,3.33
2023-02-14T15:44:33.370Z,3.57
2023-02-14T15:47:02.093Z,3.60
2023-02-14T15:49:33.454Z,3.77
2023-02-14T15:52:02.604Z,3.27
2023-02-14T15:54:33.516Z,3.00
2023-02-14T15:57:03.187Z,3.47
2023-02-14T15:59:32.239Z,3.27
2023-02-14T16:02:01.390Z,3.30
2023-02-14T16:04:30.197Z,3.30
2023-02-14T16:07:05.965Z,3.37
2023-02-14T16:09:35.364Z,3.17
2023-02-14T16:12:15.231Z,3.43
2023-02-14T16:14:46.528Z,3.70
2023-02-14T16:17:15.531Z,2.70
2023-02-14T16:19:44.883Z,2.43
2023-02-14T16:22:13.288Z,2.90
2023-02-14T16:24:42.080Z,3.20
2023-02-14T16:27:13.290Z,3.50
2023-02-14T16:29:43.314Z,3.00
2023-02-14T16:32:16.091Z,3.07
2023-02-14T16:34:47.605Z,2.77
2023-02-14T16:37:20.656Z,2.63
2023-02-14T16:39:49.114Z,2.70
2023-02-14T16:42:17.517Z,2.37
2023-02-14T16:44:47.175Z,4.07
2023-02-14T16:47:15.915Z,3.10
2023-02-14T16:49:44.193Z,3.10
2023-02-14T16:52:12.601Z,2.93
2023-02-14T16:54:41.050Z,3.13
2023-02-14T16:57:09.336Z,3.37
2023-02-14T16:59:37.599Z,2.50
2023-02-14T17:02:07.976Z,3.50
2023-02-14T17:04:36.304Z,2.80
2023-02-14T17:07:05.922Z,2.83
2023-02-14T17:09:37.214Z,3.43
2023-02-14T17:12:06.435Z,3.13
2023-02-14T17:14:35.936Z,3.00
2023-02-14T17:17:05.227Z,2.70
2023-02-14T17:19:34.938Z,3.00
2023-02-14T17:22:04.494Z,3.03
2023-02-14T17:24:32.968Z,3.70
2023-02-14T17:27:01.221Z,2.87
2023-02-14T17:29:29.598Z,3.23
2023-02-14T17:31:58.142Z,2.80
2023-02-14T17:34:26.528Z,3.07
2023-02-14T17:36:56.192Z,3.03
2023-02-14T17:39:24.702Z,2.90
2023-02-14T17:41:53.168Z,2.53
2023-02-14T17:44:21.560Z,3.67
2023-02-14T17:46:50.437Z,4.17
2023-02-14T17:49:18.720Z,2.87
2023-02-14T17:51:47.046Z,3.67
2023-02-14T17:54:17.017Z,3.13
2023-02-14T17:56:45.289Z,2.83
2023-02-14T17:59:13.710Z,2.77
2023-02-14T18:01:42.332Z,3.03
2023-02-14T18:04:10.645Z,3.73
2023-02-14T18:06:40.220Z,3.10
2023-02-14T18:09:08.607Z,2.93
2023-02-14T18:11:40.078Z,3.10
2023-02-14T18:14:08.387Z,3.13
2023-02-14T18:16:38.305Z,2.67
2023-02-14T18:19:06.599Z,3.37
2023-02-14T18:21:35.700Z,2.80
2023-02-14T18:24:04.162Z,3.03
2023-02-14T18:26:32.517Z,2.90
2023-02-14T18:29:06.811Z,3.27
2023-02-14T18:31:35.513Z,2.63
2023-02-14T18:34:04.132Z,3.47
2023-02-14T18:36:32.872Z,3.43
2023-02-14T18:39:01.195Z,3.30
2023-02-14T18:41:29.686Z,4.60
2023-02-14T18:43:58.210Z,3.23
2023-02-14T18:46:28.277Z,2.93
2023-02-14T18:48:57.049Z,3.87
2023-02-14T18:51:25.697Z,3.57
2023-02-14T18:53:54.632Z,3.33
2023-02-14T18:56:23.564Z,3.83
2023-02-14T18:58:52.961Z,4.60
2023-02-14T19:01:21.842Z,3.97
2023-02-14T19:03:51.563Z,4.00
2023-02-14T19:06:20.053Z,5.43
2023-02-14T19:08:48.388Z,5.13
2023-02-14T19:11:17.303Z,5.00
2023-02-14T19:13:46.397Z,4.77
2023-02-14T19:16:15.165Z,4.90
2023-02-14T19:18:43.506Z,5.33
2023-02-14T19:21:13.952Z,5.77
2023-02-14T19:23:42.314Z,6.43
2023-02-14T19:26:11.505Z,5.80
2023-02-14T19:28:40.087Z,5.30
2023-02-14T19:31:08.435Z,7.00
2023-02-14T19:33:38.979Z,6.27
2023-02-14T19:36:09.342Z,6.67
2023-02-14T19:38:38.993Z,6.53
2023-02-14T19:41:07.489Z,6.43
2023-02-14T19:43:35.794Z,6.67
2023-02-14T19:46:05.813Z,7.70
2023-02-14T19:48:34.156Z,7.73
2023-02-14T19:51:03.161Z,6.10
2023-02-14T19:53:31.734Z,6.67
2023-02-14T19:56:01.439Z,7.87
2023-02-14T19:58:29.923Z,8.20
2023-02-14T20:00:59.654Z,8.37
2023-02-14T20:03:28.108Z,8.03
2023-02-14T20:05:56.593Z,6.70
2023-02-14T20:08:24.902Z,8.07
2023-02-14T20:10:53.249Z,7.93
2023-02-14T20:13:23.213Z,8.10
2023-02-14T20:15:51.672Z,7.00
2023-02-14T20:18:19.995Z,8.40
2023-02-14T20:21:03.755Z,6.47
2023-02-14T20:23:33.306Z,7.87
2023-02-14T20:26:01.643Z,7.73
2023-02-14T20:28:31.498Z,8.70
2023-02-14T20:31:00.110Z,7.53
2023-02-14T20:33:29.688Z,7.67
2023-02-14T20:35:58.284Z,6.33
2023-02-14T20:38:26.614Z,7.87
2023-02-14T20:40:54.889Z,5.97
2023-02-14T20:43:23.484Z,7.43
2023-02-14T20:45:53.181Z,7.40
2023-02-14T20:48:21.506Z,7.17
2023-02-14T20:50:49.950Z,6.87
2023-02-14T20:53:18.241Z,6.87
2023-02-14T20:55:47.555Z,7.70
2023-02-14T20:58:16.064Z,6.80
2023-02-14T21:00:44.356Z,6.90
2023-02-14T21:03:14.055Z,6.73
2023-02-14T21:05:42.496Z,7.40
2023-02-14T21:08:10.800Z,8.17
2023-02-14T21:10:39.157Z,6.40
2023-02-14T21:13:07.475Z,7.23
2023-02-14T21:15:35.855Z,7.20
2023-02-14T21:18:04.670Z,6.37
2023-02-14T21:20:34.873Z,7.43
2023-02-14T21:23:03.167Z,6.80
2023-02-14T21:25:31.621Z,6.23
2023-02-14T21:28:00.130Z,7.07
2023-02-14T21:30:31.070Z,6.73
2023-02-14T21:33:00.568Z,6.33
2023-02-14T21:35:28.870Z,6.47
2023-02-14T21:37:58.542Z,6.70
2023-02-14T21:40:27.230Z,6.67
2023-02-14T21:42:55.498Z,6.50
2023-02-14T21:45:37.750Z,7.13
2023-02-14T21:48:23.567Z,6.57
2023-02-14T21:50:52.215Z,5.77
2023-02-14T21:53:21.921Z,6.77
2023-02-14T21:55:50.265Z,5.70
2023-02-14T21:58:18.692Z,5.93
2023-02-14T22:00:48.075Z,5.67
2023-02-14T22:03:16.383Z,7.10
2023-02-14T22:05:45.031Z,6.87
2023-02-14T22:08:13.317Z,6.03
2023-02-14T22:10:42.987Z,6.73
2023-02-14T22:13:11.275Z,5.87
2023-02-14T22:15:41.240Z,6.40
2023-02-14T22:18:09.677Z,5.80
2023-02-14T22:20:38.003Z,5.70
2023-02-14T22:23:06.327Z,6.10
2023-02-14T22:25:34.955Z,5.47
2023-02-14T22:28:04.595Z,5.90
2023-02-14T22:30:32.896Z,5.67
2023-02-14T22:33:01.598Z,16.73
2023-02-14T22:35:29.861Z,12.50
2023-02-14T22:37:58.168Z,15.10
2023-02-14T22:40:26.883Z,14.03
2023-02-14T22:42:55.188Z,14.67
2023-02-14T22:45:24.857Z,14.40
2023-02-14T22:47:53.617Z,13.03
2023-02-14T22:50:21.884Z,13.17
2023-02-14T22:52:50.190Z,10.67
2023-02-14T22:55:19.452Z,10.57
2023-02-14T22:57:47.704Z,10.30
2023-02-14T23:00:16.260Z,10.70
2023-02-14T23:02:46.198Z,10.37
2023-02-14T23:05:14.580Z,8.53
2023-02-14T23:07:42.879Z,6.60
2023-02-14T23:10:11.783Z,8.60
2023-02-14T23:12:57.908Z,7.87
2023-02-14T23:15:43.823Z,9.67
2023-02-14T23:18:31.229Z,10.17
2023-02-14T23:21:16.924Z,8.87
2023-02-14T23:23:45.269Z,9.23
2023-02-14T23:26:13.584Z,9.67
2023-02-14T23:28:41.912Z,8.37
2023-02-14T23:31:10.342Z,8.63
2023-02-14T23:33:40.056Z,9.27
2023-02-14T23:36:08.497Z,10.40
2023-02-14T23:38:36.818Z,7.13
2023-02-14T23:41:27.677Z,7.17
2023-02-14T23:43:55.961Z,8.63
2023-02-14T23:46:24.235Z,7.83
2023-02-14T23:48:53.901Z,7.17
2023-02-14T23:51:22.230Z,6.23
2023-02-14T23:53:50.524Z,7.70
2023-02-14T23:56:18.889Z,7.93
2023-02-14T23:58:47.180Z,5.93
